createdAt,value
2022-09-27T00:01:07.662Z,67.60
2022-09-27T00:03:36.208Z,67.80
2022-09-27T00:06:07.902Z,67.80
2022-09-27T00:08:36.927Z,68.00
2022-09-27T00:11:13.708Z,68.60
2022-09-27T00:13:42.410Z,68.50
2022-09-27T00:16:11.350Z,69.00
2022-09-27T00:18:39.774Z,69.60
2022-09-27T00:21:10.811Z,69.80
2022-09-27T00:23:39.526Z,70.00
2022-09-27T00:26:12.704Z,70.10
2022-09-27T00:28:41.037Z,70.40
2022-09-27T00:31:21.216Z,70.50
2022-09-27T00:33:50.657Z,70.90
2022-09-27T00:36:20.099Z,71.00
2022-09-27T00:38:48.950Z,71.50
2022-09-27T00:41:20.898Z,71.30
2022-09-27T00:43:51.531Z,71.50
2022-09-27T00:46:28.498Z,71.70
2022-09-27T00:49:05.070Z,71.80
2022-09-27T00:51:36.598Z,71.60
2022-09-27T00:54:06.660Z,71.60
2022-09-27T00:56:38.869Z,71.70
2022-09-27T00:59:13.237Z,71.70
2022-09-27T01:01:42.020Z,71.90
2022-09-27T01:04:12.788Z,72.00
2022-09-27T01:06:42.290Z,72.10
2022-09-27T01:09:13.071Z,72.30
2022-09-27T01:11:47.258Z,72.40
2022-09-27T01:14:33.889Z,72.90
2022-09-27T01:17:13.536Z,73.10
2022-09-27T01:20:09.696Z,73.20
2022-09-27T01:22:46.380Z,73.30
2022-09-27T01:25:34.540Z,73.30
2022-09-27T01:28:19.086Z,73.60
2022-09-27T01:30:54.992Z,73.60
2022-09-27T01:33:33.506Z,73.80
2022-09-27T01:36:13.954Z,73.90
2022-09-27T01:38:56.378Z,73.70
2022-09-27T01:41:36.692Z,74.00
2022-09-27T01:44:26.331Z,74.20
2022-09-27T01:47:06.465Z,74.40
2022-09-27T01:50:00.373Z,74.20
2022-09-27T01:52:37.551Z,74.00
2022-09-27T01:55:12.949Z,74.20
2022-09-27T01:58:05.583Z,74.20
2022-09-27T02:00:35.007Z,74.20
2022-09-27T02:03:10.347Z,74.00
2022-09-27T02:06:03.284Z,74.20
2022-09-27T02:08:59.616Z,74.20
2022-09-27T02:11:56.340Z,74.20
2022-09-27T02:14:30.301Z,74.40
2022-09-27T02:17:10.185Z,74.30
2022-09-27T02:19:51.176Z,74.50
2022-09-27T02:22:36.531Z,74.60
2022-09-27T02:25:11.261Z,74.50
2022-09-27T02:27:42.895Z,74.80
2022-09-27T02:30:15.457Z,74.70
2022-09-27T02:32:47.500Z,74.50
2022-09-27T02:35:19.868Z,74.30
2022-09-27T02:37:50.609Z,74.50
2022-09-27T02:40:20.184Z,74.40
2022-09-27T02:42:48.417Z,74.60
2022-09-27T02:45:17.146Z,74.90
2022-09-27T02:47:55.903Z,74.70
2022-09-27T02:50:33.213Z,74.70
2022-09-27T02:53:35.109Z,74.70
2022-09-27T02:56:17.588Z,74.60
2022-09-27T02:59:10.696Z,74.50
2022-09-27T03:02:03.365Z,74.60
2022-09-27T03:04:39.591Z,74.50
2022-09-27T03:07:09.181Z,74.70
2022-09-27T03:09:48.125Z,74.60
2022-09-27T03:12:20.773Z,74.70
2022-09-27T03:14:49.147Z,74.90
2022-09-27T03:17:37.173Z,75.00
2022-09-27T03:20:43.852Z,74.90
2022-09-27T03:23:22.842Z,74.90
2022-09-27T03:25:51.583Z,75.00
2022-09-27T03:28:20.319Z,75.20
2022-09-27T03:30:49.144Z,75.40
2022-09-27T03:33:35.498Z,75.10
2022-09-27T03:36:09.177Z,75.70
2022-09-27T03:38:40.844Z,75.70
2022-09-27T03:41:12.542Z,75.80
2022-09-27T03:43:43.243Z,75.80
2022-09-27T03:46:11.438Z,75.70
2022-09-27T03:48:42.738Z,75.60
2022-09-27T03:51:12.346Z,75.60
2022-09-27T03:53:42.926Z,75.60
2022-09-27T03:56:11.545Z,75.50
2022-09-27T03:58:40.239Z,75.70
2022-09-27T04:01:09.095Z,75.60
2022-09-27T04:03:38.878Z,75.60
2022-09-27T04:06:27.181Z,75.50
2022-09-27T04:08:57.024Z,75.50
2022-09-27T04:11:32.547Z,75.50
2022-09-27T04:14:00.617Z,75.40
2022-09-27T04:16:28.851Z,75.40
2022-09-27T04:19:21.850Z,76.00
2022-09-27T04:22:03.093Z,75.20
2022-09-27T04:24:33.977Z,75.40
2022-09-27T04:27:26.510Z,75.30
2022-09-27T04:29:54.606Z,75.50
2022-09-27T04:32:42.926Z,75.50
2022-09-27T04:36:06.605Z,75.40
2022-09-27T04:38:36.642Z,75.30
2022-09-27T04:41:07.424Z,75.40
2022-09-27T04:43:37.971Z,75.20
2022-09-27T04:46:06.218Z,75.00
2022-09-27T04:48:34.487Z,75.20
2022-09-27T04:51:03.689Z,75.10
2022-09-27T04:53:32.179Z,75.40
2022-09-27T04:56:02.881Z,75.10
2022-09-27T04:58:35.626Z,75.90
2022-09-27T05:01:04.521Z,75.30
2022-09-27T05:03:47.855Z,75.40
2022-09-27T05:06:17.356Z,75.60
2022-09-27T05:08:45.743Z,75.50
2022-09-27T05:11:24.998Z,75.50
2022-09-27T05:14:30.039Z,75.60
2022-09-27T05:17:22.315Z,75.70
2022-09-27T05:20:28.936Z,75.60
2022-09-27T05:23:04.808Z,75.70
2022-09-27T05:25:33.308Z,75.60
2022-09-27T05:28:01.389Z,75.50
2022-09-27T05:30:30.901Z,75.30
2022-09-27T05:33:12.081Z,75.30
2022-09-27T05:35:55.460Z,75.40
2022-09-27T05:38:26.608Z,75.30
2022-09-27T05:40:58.294Z,75.30
2022-09-27T05:43:28.093Z,75.30
2022-09-27T05:45:59.339Z,75.20
2022-09-27T05:48:30.386Z,75.10
2022-09-27T05:51:05.870Z,75.30
2022-09-27T05:53:36.665Z,75.20
2022-09-27T05:56:07.499Z,75.30
2022-09-27T05:58:55.517Z,75.20
2022-09-27T06:01:29.899Z,75.40
2022-09-27T06:04:21.459Z,75.30
2022-09-27T06:07:05.319Z,75.50
2022-09-27T06:09:33.359Z,75.50
2022-09-27T06:12:02.187Z,75.50
2022-09-27T06:14:30.548Z,75.60
2022-09-27T06:17:08.778Z,75.20
2022-09-27T06:19:40.943Z,75.60
2022-09-27T06:22:09.421Z,75.60
2022-09-27T06:24:44.237Z,75.80
2022-09-27T06:27:20.324Z,76.10
2022-09-27T06:29:59.633Z,76.00
2022-09-27T06:32:42.795Z,79.50
2022-09-27T06:35:25.608Z,78.20
2022-09-27T06:37:54.524Z,77.00
2022-09-27T06:40:27.304Z,76.50
2022-09-27T06:43:15.909Z,76.40
2022-09-27T06:46:10.294Z,76.30
2022-09-27T06:48:51.638Z,76.30
2022-09-27T06:51:21.413Z,76.40
2022-09-27T06:53:50.800Z,76.30
2022-09-27T06:56:19.093Z,76.00
2022-09-27T06:59:09.966Z,75.90
2022-09-27T07:02:02.008Z,75.80
2022-09-27T07:05:10.276Z,75.60
2022-09-27T07:07:45.166Z,75.50
2022-09-27T07:10:13.794Z,75.50
2022-09-27T07:12:47.531Z,75.60
2022-09-27T07:15:17.308Z,75.60
2022-09-27T07:17:45.685Z,75.70
2022-09-27T07:20:15.789Z,75.70
2022-09-27T07:22:45.367Z,75.90
2022-09-27T07:25:15.308Z,76.00
2022-09-27T07:27:43.731Z,75.90
2022-09-27T07:30:13.832Z,76.10
2022-09-27T07:32:42.388Z,76.20
2022-09-27T07:35:13.667Z,76.20
2022-09-27T07:37:45.107Z,76.20
2022-09-27T07:40:14.804Z,76.00
2022-09-27T07:42:43.157Z,76.10
2022-09-27T07:45:12.732Z,75.90
2022-09-27T07:48:13.841Z,76.00
2022-09-27T07:51:17.349Z,76.00
2022-09-27T07:53:56.703Z,76.00
2022-09-27T07:56:43.507Z,75.90
2022-09-27T07:59:13.804Z,76.10
2022-09-27T08:01:42.103Z,76.00
2022-09-27T08:04:10.521Z,76.10
2022-09-27T08:06:38.777Z,76.10
2022-09-27T08:09:09.943Z,75.90
2022-09-27T08:11:40.390Z,75.90
2022-09-27T08:14:11.241Z,76.00
2022-09-27T08:16:41.550Z,75.90
2022-09-27T08:19:19.496Z,75.90
2022-09-27T08:22:04.679Z,75.30
2022-09-27T08:24:55.739Z,75.00
2022-09-27T08:27:43.981Z,75.00
2022-09-27T08:30:33.079Z,74.90
2022-09-27T08:33:03.876Z,74.90
2022-09-27T08:35:34.086Z,74.90
2022-09-27T08:38:03.444Z,74.70
2022-09-27T08:40:39.317Z,74.50
2022-09-27T08:43:11.811Z,74.80
2022-09-27T08:45:43.238Z,74.80
2022-09-27T08:48:11.552Z,74.90
2022-09-27T08:50:43.150Z,74.90
2022-09-27T08:53:19.079Z,74.80
2022-09-27T08:55:50.527Z,74.70
2022-09-27T08:58:27.067Z,74.50
2022-09-27T09:00:56.782Z,74.40
2022-09-27T09:03:29.137Z,74.30
2022-09-27T09:06:07.827Z,73.60
2022-09-27T09:08:43.595Z,73.20
2022-09-27T09:11:40.422Z,73.10
2022-09-27T09:14:23.380Z,73.10
2022-09-27T09:16:59.025Z,73.20
2022-09-27T09:19:42.943Z,73.00
2022-09-27T09:22:32.093Z,73.00
2022-09-27T09:25:07.867Z,72.80
2022-09-27T09:27:42.596Z,72.70
2022-09-27T09:30:20.325Z,72.90
2022-09-27T09:33:03.138Z,72.70
2022-09-27T09:35:38.564Z,71.80
2022-09-27T09:38:12.743Z,72.00
2022-09-27T09:40:47.422Z,72.40
2022-09-27T09:43:22.200Z,72.50
2022-09-27T09:45:57.649Z,72.30
2022-09-27T09:48:31.192Z,72.00
2022-09-27T09:51:03.454Z,72.30
2022-09-27T09:53:39.773Z,76.30
2022-09-27T09:56:19.462Z,74.30
2022-09-27T09:58:55.270Z,73.80
2022-09-27T10:01:31.402Z,72.30
2022-09-27T10:03:59.667Z,71.90
2022-09-27T10:06:31.631Z,74.70
2022-09-27T10:09:01.764Z,76.60
2022-09-27T10:11:46.165Z,73.60
2022-09-27T10:14:24.802Z,71.30
2022-09-27T10:17:00.678Z,70.50
2022-09-27T10:19:30.449Z,70.50
2022-09-27T10:22:02.554Z,70.30
2022-09-27T10:24:42.548Z,70.40
2022-09-27T10:27:21.100Z,70.40
2022-09-27T10:29:57.143Z,70.30
2022-09-27T10:32:27.385Z,70.30
2022-09-27T10:35:23.722Z,70.20
2022-09-27T10:37:53.420Z,70.10
2022-09-27T10:40:29.604Z,69.70
2022-09-27T10:42:59.963Z,70.00
2022-09-27T10:45:46.315Z,72.90
2022-09-27T10:48:23.670Z,74.20
2022-09-27T10:51:00.751Z,74.50
2022-09-27T10:53:48.660Z,70.30
2022-09-27T10:56:28.659Z,67.40
2022-09-27T10:58:59.198Z,65.60
2022-09-27T11:01:41.236Z,65.10
2022-09-27T11:04:31.361Z,64.60
2022-09-27T11:07:15.319Z,64.10
2022-09-27T11:09:52.609Z,63.90
2022-09-27T11:12:22.905Z,63.50
2022-09-27T11:14:58.335Z,62.30
2022-09-27T11:17:32.522Z,60.80
2022-09-27T11:20:09.032Z,60.90
2022-09-27T11:22:46.181Z,61.10
2022-09-27T11:25:21.200Z,61.40
2022-09-27T11:27:58.992Z,61.60
2022-09-27T11:30:42.128Z,61.70
2022-09-27T11:33:46.876Z,61.80
2022-09-27T11:36:32.300Z,62.40
2022-09-27T11:39:09.050Z,61.50
2022-09-27T11:41:57.909Z,61.40
2022-09-27T11:44:39.348Z,60.40
2022-09-27T11:47:12.903Z,60.40
2022-09-27T11:49:50.663Z,60.70
2022-09-27T11:52:22.423Z,60.70
2022-09-27T11:55:10.558Z,60.20
2022-09-27T11:57:40.158Z,60.30
2022-09-27T12:00:22.424Z,60.40
2022-09-27T12:03:21.776Z,60.40
2022-09-27T12:05:58.445Z,60.40
2022-09-27T12:08:34.643Z,60.50
2022-09-27T12:11:04.567Z,60.30
2022-09-27T12:13:35.368Z,60.50
2022-09-27T12:16:05.265Z,60.90
2022-09-27T12:18:40.087Z,61.40
2022-09-27T12:21:24.041Z,65.40
2022-09-27T12:23:57.769Z,68.10
2022-09-27T12:26:38.721Z,69.00
2022-09-27T12:29:14.260Z,70.00
2022-09-27T12:31:45.713Z,66.30
2022-09-27T12:34:20.385Z,67.10
2022-09-27T12:37:00.635Z,67.70
2022-09-27T12:39:35.303Z,64.20
2022-09-27T12:42:21.140Z,62.60
2022-09-27T12:44:52.141Z,60.90
2022-09-27T12:47:25.968Z,60.50
2022-09-27T12:50:03.497Z,60.20
2022-09-27T12:52:33.840Z,59.60
2022-09-27T12:55:24.057Z,59.50
2022-09-27T12:57:57.964Z,59.50
2022-09-27T13:00:27.459Z,59.40
2022-09-27T13:03:15.149Z,59.90
2022-09-27T13:06:01.168Z,60.20
2022-09-27T13:08:54.187Z,60.40
2022-09-27T13:11:30.222Z,60.70
2022-09-27T13:14:01.029Z,61.10
2022-09-27T13:16:30.343Z,61.20
2022-09-27T13:19:01.824Z,61.20
2022-09-27T13:22:00.820Z,61.50
2022-09-27T13:24:51.737Z,62.10
2022-09-27T13:27:43.853Z,61.20
2022-09-27T13:30:48.722Z,60.90
2022-09-27T13:33:43.580Z,61.30
2022-09-27T13:36:30.622Z,61.60
2022-09-27T13:39:23.022Z,61.90
2022-09-27T13:42:32.008Z,61.60
2022-09-27T13:45:22.967Z,61.70
2022-09-27T13:47:55.523Z,61.70
2022-09-27T13:50:41.089Z,61.50
2022-09-27T13:53:24.516Z,61.70
2022-09-27T13:55:55.439Z,61.90
2022-09-27T13:58:46.972Z,62.00
2022-09-27T14:01:43.400Z,62.20
2022-09-27T14:04:20.972Z,62.20
2022-09-27T14:06:56.906Z,62.60
2022-09-27T14:09:33.106Z,62.80
2022-09-27T14:12:32.781Z,62.70
2022-09-27T14:15:05.528Z,63.00
2022-09-27T14:17:36.300Z,63.10
2022-09-27T14:20:08.177Z,63.40
2022-09-27T14:22:39.060Z,63.20
2022-09-27T14:25:20.466Z,62.90
2022-09-27T14:27:51.883Z,63.00
2022-09-27T14:30:35.879Z,62.80
2022-09-27T14:33:30.170Z,62.80
2022-09-27T14:36:23.875Z,62.70
2022-09-27T14:38:53.997Z,62.90
2022-09-27T14:41:28.047Z,62.90
2022-09-27T14:43:56.560Z,63.00
2022-09-27T14:46:31.127Z,63.20
2022-09-27T14:48:59.726Z,63.50
2022-09-27T14:51:32.091Z,63.70
2022-09-27T14:54:05.528Z,63.80
2022-09-27T14:56:38.440Z,64.00
2022-09-27T14:59:15.645Z,64.40
2022-09-27T15:01:51.549Z,64.70
2022-09-27T15:04:24.351Z,65.00
2022-09-27T15:06:56.680Z,65.10
2022-09-27T15:09:29.778Z,65.10
2022-09-27T15:12:02.559Z,65.10
2022-09-27T15:14:34.299Z,64.90
2022-09-27T15:17:06.206Z,64.90
2022-09-27T15:19:37.111Z,64.90
2022-09-27T15:22:31.990Z,64.80
2022-09-27T15:25:09.120Z,65.00
2022-09-27T15:27:38.733Z,64.90
2022-09-27T15:30:08.058Z,64.90
2022-09-27T15:32:38.106Z,64.90
2022-09-27T15:35:09.738Z,65.00
2022-09-27T15:37:39.524Z,64.80
2022-09-27T15:40:46.406Z,64.80
2022-09-27T15:43:22.449Z,65.10
2022-09-27T15:45:52.346Z,64.80
2022-09-27T15:48:24.756Z,64.70
2022-09-27T15:50:53.004Z,64.90
2022-09-27T15:53:42.859Z,64.90
2022-09-27T15:56:17.527Z,65.10
2022-09-27T15:58:46.054Z,65.30
2022-09-27T16:01:21.231Z,65.40
2022-09-27T16:03:51.407Z,65.60
2022-09-27T16:06:20.186Z,66.20
2022-09-27T16:08:48.437Z,65.50
2022-09-27T16:11:17.899Z,65.50
2022-09-27T16:13:46.128Z,65.60
2022-09-27T16:16:20.229Z,65.60
2022-09-27T16:18:49.034Z,65.70
2022-09-27T16:21:18.837Z,65.70
2022-09-27T16:23:46.975Z,65.70
2022-09-27T16:26:15.146Z,65.70
2022-09-27T16:28:43.391Z,65.70
2022-09-27T16:31:12.224Z,65.90
2022-09-27T16:33:43.042Z,65.90
2022-09-27T16:36:16.194Z,65.90
2022-09-27T16:38:49.054Z,65.90
2022-09-27T16:41:17.463Z,65.70
2022-09-27T16:43:46.270Z,65.90
2022-09-27T16:46:18.762Z,65.90
2022-09-27T16:48:48.271Z,65.90
2022-09-27T16:51:36.162Z,65.90
2022-09-27T16:54:06.822Z,66.10
2022-09-27T16:56:35.910Z,66.00
2022-09-27T16:59:06.614Z,65.90
2022-09-27T17:01:36.930Z,66.00
2022-09-27T17:04:05.274Z,66.00
2022-09-27T17:06:33.456Z,66.10
2022-09-27T17:09:05.468Z,66.10
2022-09-27T17:11:34.080Z,66.00
2022-09-27T17:14:02.347Z,66.00
2022-09-27T17:16:31.088Z,66.10
2022-09-27T17:18:59.333Z,66.20
2022-09-27T17:21:27.560Z,66.30
2022-09-27T17:23:56.631Z,66.40
2022-09-27T17:26:30.617Z,66.40
2022-09-27T17:29:00.906Z,66.50
2022-09-27T17:31:31.589Z,66.50
2022-09-27T17:34:02.870Z,67.10
2022-09-27T17:36:33.959Z,66.50
2022-09-27T17:39:03.434Z,66.80
2022-09-27T17:41:39.650Z,66.90
2022-09-27T17:44:14.139Z,66.80
2022-09-27T17:46:44.273Z,66.70
2022-09-27T17:49:33.208Z,66.80
2022-09-27T17:52:01.761Z,66.80
2022-09-27T17:54:29.967Z,66.70
2022-09-27T17:56:59.506Z,66.90
2022-09-27T17:59:30.086Z,66.90
2022-09-27T18:01:58.516Z,66.90
2022-09-27T18:04:26.682Z,66.80
2022-09-27T18:06:54.846Z,66.80
2022-09-27T18:09:23.023Z,66.80
2022-09-27T18:11:51.202Z,66.80
2022-09-27T18:14:21.153Z,66.80
2022-09-27T18:16:49.368Z,66.80
2022-09-27T18:19:18.380Z,66.70
2022-09-27T18:21:50.223Z,66.80
2022-09-27T18:24:18.688Z,66.90
2022-09-27T18:26:49.061Z,66.80
2022-09-27T18:29:20.056Z,66.80
2022-09-27T18:31:49.246Z,66.90
2022-09-27T18:34:18.331Z,66.80
2022-09-27T18:36:46.799Z,66.80
2022-09-27T18:39:19.430Z,66.90
2022-09-27T18:41:48.728Z,67.80
2022-09-27T18:44:18.301Z,67.20
2022-09-27T18:46:48.322Z,67.10
2022-09-27T18:49:23.443Z,67.10
2022-09-27T18:51:53.961Z,67.10
2022-09-27T18:54:23.668Z,67.20
2022-09-27T18:56:53.290Z,67.30
2022-09-27T18:59:23.948Z,71.00
2022-09-27T19:01:53.722Z,73.40
2022-09-27T19:04:24.825Z,73.80
2022-09-27T19:06:53.917Z,74.00
2022-09-27T19:09:22.257Z,74.20
2022-09-27T19:11:52.806Z,74.00
2022-09-27T19:14:23.776Z,74.10
2022-09-27T19:16:53.439Z,73.80
2022-09-27T19:19:22.234Z,73.80
2022-09-27T19:21:52.796Z,74.10
2022-09-27T19:24:21.090Z,74.20
2022-09-27T19:26:53.495Z,74.10
2022-09-27T19:29:21.799Z,74.20
2022-09-27T19:31:50.112Z,73.90
2022-09-27T19:34:19.800Z,74.20
2022-09-27T19:36:48.049Z,74.10
2022-09-27T19:39:16.313Z,74.00
2022-09-27T19:41:45.835Z,73.80
2022-09-27T19:44:14.284Z,73.90
2022-09-27T19:46:45.147Z,73.80
2022-09-27T19:49:13.512Z,73.80
2022-09-27T19:51:43.133Z,73.50
2022-09-27T19:54:12.882Z,73.30
2022-09-27T19:56:41.111Z,73.10
2022-09-27T19:59:12.167Z,73.00
2022-09-27T20:01:42.062Z,72.80
2022-09-27T20:04:12.636Z,72.30
2022-09-27T20:06:42.829Z,72.00
2022-09-27T20:09:11.012Z,71.90
2022-09-27T20:11:41.116Z,68.60
2022-09-27T20:14:09.114Z,66.50
2022-09-27T20:16:41.555Z,65.80
2022-09-27T20:19:10.611Z,65.80
2022-09-27T20:21:38.780Z,65.60
2022-09-27T20:24:08.442Z,66.00
2022-09-27T20:26:38.068Z,66.40
2022-09-27T20:29:08.916Z,66.60
2022-09-27T20:31:51.714Z,66.80
2022-09-27T20:34:29.060Z,66.60
2022-09-27T20:36:57.332Z,66.60
2022-09-27T20:39:27.028Z,66.30
2022-09-27T20:41:57.651Z,66.40
2022-09-27T20:44:27.991Z,66.70
2022-09-27T20:46:56.175Z,66.90
2022-09-27T20:49:26.643Z,66.70
2022-09-27T20:51:55.041Z,66.70
2022-09-27T20:54:23.197Z,66.70
2022-09-27T20:56:52.815Z,66.60
2022-09-27T20:59:23.100Z,66.50
2022-09-27T21:01:54.579Z,66.80
2022-09-27T21:04:23.606Z,66.90
2022-09-27T21:06:53.028Z,66.90
2022-09-27T21:09:21.597Z,66.80
2022-09-27T21:11:53.992Z,66.50
2022-09-27T21:14:22.286Z,66.40
2022-09-27T21:16:50.466Z,66.40
2022-09-27T21:19:20.927Z,66.30
2022-09-27T21:21:49.112Z,66.30
2022-09-27T21:24:17.415Z,66.30
2022-09-27T21:26:45.582Z,66.40
2022-09-27T21:29:15.514Z,66.40
2022-09-27T21:31:46.510Z,66.60
2022-09-27T21:34:14.748Z,66.70
2022-09-27T21:36:45.063Z,66.80
2022-09-27T21:39:15.437Z,66.90
2022-09-27T21:41:43.655Z,67.00
2022-09-27T21:44:12.192Z,67.10
2022-09-27T21:46:43.945Z,66.90
2022-09-27T21:49:14.503Z,66.80
2022-09-27T21:51:44.550Z,66.80
2022-09-27T21:54:15.925Z,66.70
2022-09-27T21:56:45.561Z,66.70
2022-09-27T21:59:16.127Z,66.60
2022-09-27T22:01:47.137Z,66.60
2022-09-27T22:04:17.792Z,66.70
2022-09-27T22:06:46.022Z,66.60
2022-09-27T22:09:15.453Z,66.70
2022-09-27T22:11:46.335Z,67.00
2022-09-27T22:14:15.316Z,66.80
2022-09-27T22:16:47.386Z,67.10
2022-09-27T22:19:18.258Z,67.30
2022-09-27T22:21:47.279Z,67.30
2022-09-27T22:24:17.116Z,67.30
2022-09-27T22:26:49.331Z,67.30
2022-09-27T22:29:17.735Z,67.30
2022-09-27T22:31:47.521Z,67.30
2022-09-27T22:34:20.662Z,67.40
2022-09-27T22:36:48.846Z,67.50
2022-09-27T22:39:19.397Z,67.60
2022-09-27T22:41:50.205Z,67.60
2022-09-27T22:44:20.717Z,67.60
2022-09-27T22:46:50.341Z,67.70
2022-09-27T22:49:18.484Z,67.70
2022-09-27T22:51:46.472Z,67.80
2022-09-27T22:54:14.609Z,67.90
2022-09-27T22:56:44.968Z,67.60
2022-09-27T22:59:13.144Z,67.90
2022-09-27T23:01:43.577Z,67.90
2022-09-27T23:04:14.064Z,68.10
2022-09-27T23:06:42.793Z,68.10
2022-09-27T23:09:11.675Z,68.80
2022-09-27T23:11:42.381Z,68.10
2022-09-27T23:14:12.010Z,68.20
2022-09-27T23:16:40.232Z,68.20
2022-09-27T23:19:09.769Z,68.40
2022-09-27T23:21:39.370Z,68.40
2022-09-27T23:24:08.471Z,68.40
2022-09-27T23:26:36.652Z,68.40
2022-09-27T23:29:05.128Z,68.60
2022-09-27T23:31:34.209Z,68.80
2022-09-27T23:34:04.890Z,69.10
2022-09-27T23:36:33.166Z,68.90
2022-09-27T23:39:02.704Z,68.90
2022-09-27T23:41:31.020Z,69.00
2022-09-27T23:43:59.291Z,69.30
2022-09-27T23:46:27.642Z,69.30
2022-09-27T23:48:58.919Z,69.30
2022-09-27T23:51:30.098Z,69.20
2022-09-27T23:54:04.434Z,69.20
2022-09-27T23:56:32.615Z,69.30
2022-09-27T23:59:01.109Z,69.20
